createdAt,value
2018-02-06T00:01:00.898Z,0.36
2018-02-06T00:02:15.514Z,0.35
2018-02-06T00:03:30.785Z,0.34
2018-02-06T00:04:45.497Z,0.35
2018-02-06T00:06:00.405Z,0.34
2018-02-06T00:07:15.477Z,0.34
2018-02-06T00:08:30.670Z,0.31
2018-02-06T00:09:45.082Z,0.33
2018-02-06T00:10:59.482Z,0.38
2018-02-06T00:12:13.909Z,0.39
2018-02-06T00:13:28.103Z,0.39
2018-02-06T00:14:43.374Z,0.39
2018-02-06T00:15:58.309Z,0.34
2018-02-06T00:17:13.149Z,0.31
2018-02-06T00:18:28.338Z,0.29
2018-02-06T00:19:43.035Z,0.3
2018-02-06T00:20:57.670Z,0.33
2018-02-06T00:22:12.515Z,0.33
2018-02-06T00:23:27.761Z,0.36
2018-02-06T00:24:42.084Z,0.37
2018-02-06T00:25:56.999Z,0.39
2018-02-06T00:27:11.698Z,0.43
2018-02-06T00:28:26.873Z,0.43
2018-02-06T00:29:42.818Z,0.42
2018-02-06T00:30:57.444Z,0.4
2018-02-06T00:32:12.331Z,0.42
2018-02-06T00:33:27.478Z,0.37
2018-02-06T00:34:42.237Z,0.32
2018-02-06T00:35:57.205Z,0.28
2018-02-06T00:37:11.807Z,0.28
2018-02-06T00:38:26.477Z,0.28
2018-02-06T00:39:41.450Z,0.27
2018-02-06T00:40:56.065Z,0.26
2018-02-06T00:42:09.840Z,0.29
2018-02-06T00:43:24.815Z,0.3
2018-02-06T00:44:39.659Z,0.3
2018-02-06T00:45:54.816Z,0.29
2018-02-06T00:47:09.744Z,0.28
2018-02-06T00:48:24.431Z,0.29
2018-02-06T00:49:38.737Z,0.29
2018-02-06T00:50:52.921Z,0.29
2018-02-06T00:52:07.527Z,0.29
2018-02-06T00:53:21.384Z,0.32
2018-02-06T00:54:36.001Z,0.31
2018-02-06T00:55:50.695Z,0.31
2018-02-06T00:57:05.289Z,0.3
2018-02-06T00:58:20.782Z,0.31
2018-02-06T00:59:35.375Z,0.28
2018-02-06T01:00:49.741Z,0.28
2018-02-06T01:02:05.898Z,0.28
2018-02-06T01:03:20.584Z,0.28
2018-02-06T01:04:35.181Z,0.25
2018-02-06T01:05:49.868Z,0.25
2018-02-06T01:07:04.730Z,0.21
2018-02-06T01:08:20.171Z,0.25
2018-02-06T01:09:34.756Z,0.26
2018-02-06T01:10:50.425Z,0.26
2018-02-06T01:12:05.041Z,0.24
2018-02-06T01:13:19.715Z,0.2
2018-02-06T01:14:34.670Z,0.16
2018-02-06T01:15:49.016Z,0.15
2018-02-06T01:17:04.770Z,0.13
2018-02-06T01:18:19.754Z,0.1
2018-02-06T01:19:34.688Z,0.08
2018-02-06T01:20:49.828Z,0.07
2018-02-06T01:22:04.418Z,0.05
2018-02-06T01:23:18.729Z,0.04
2018-02-06T01:24:33.717Z,0.04
2018-02-06T01:25:48.052Z,0.05
2018-02-06T01:27:02.619Z,0.05
2018-02-06T01:28:18.029Z,0.07
2018-02-06T01:29:32.267Z,0.06
2018-02-06T01:30:46.898Z,0.07
2018-02-06T01:32:01.708Z,0.06
2018-02-06T01:33:16.944Z,0.06
2018-02-06T01:34:31.583Z,0.06
2018-02-06T01:35:46.201Z,0.06
2018-02-06T01:37:00.506Z,0.02
2018-02-06T01:38:15.154Z,0.02
2018-02-06T01:39:29.746Z,0.01
2018-02-06T01:40:43.785Z,0.01
2018-02-06T01:41:57.849Z,0.04
2018-02-06T01:43:12.194Z,0.04
2018-02-06T01:44:27.106Z,0.06
2018-02-06T01:45:41.667Z,0.03
2018-02-06T01:46:56.626Z,-0.01
2018-02-06T01:48:11.246Z,0.01
2018-02-06T01:49:25.948Z,0.03
2018-02-06T01:50:40.535Z,0.05
2018-02-06T01:51:55.121Z,0.06
2018-02-06T01:53:10.404Z,0.07
2018-02-06T01:54:24.999Z,0.1
2018-02-06T01:55:40.261Z,0.1
2018-02-06T01:56:54.831Z,0.12
2018-02-06T01:58:09.146Z,0.14
2018-02-06T01:59:23.774Z,0.16
2018-02-06T02:00:38.294Z,0.19
2018-02-06T02:01:53.715Z,0.19
2018-02-06T02:03:07.996Z,0.21
2018-02-06T02:04:22.549Z,0.22
2018-02-06T02:05:36.929Z,0.22
2018-02-06T02:06:52.276Z,0.22
2018-02-06T02:08:07.117Z,0.23
2018-02-06T02:09:22.219Z,0.23
2018-02-06T02:10:37.491Z,0.25
2018-02-06T02:11:51.810Z,0.26
2018-02-06T02:13:06.184Z,0.28
2018-02-06T02:14:21.188Z,0.29
2018-02-06T02:15:36.212Z,0.29
2018-02-06T02:16:50.541Z,0.28
2018-02-06T02:18:05.463Z,0.28
2018-02-06T02:19:20.566Z,0.26
2018-02-06T02:20:36.012Z,0.28
2018-02-06T02:21:50.913Z,0.3
2018-02-06T02:23:05.766Z,0.29
2018-02-06T02:24:20.624Z,0.26
2018-02-06T02:25:35.255Z,0.23
2018-02-06T02:26:50.389Z,0.2
2018-02-06T02:28:04.998Z,0.18
2018-02-06T02:29:19.322Z,0.15
2018-02-06T02:30:34.117Z,0.14
2018-02-06T02:31:48.686Z,0.15
2018-02-06T02:33:03.243Z,0.13
2018-02-06T02:34:17.244Z,0.12
2018-02-06T02:35:32.543Z,0.14
2018-02-06T02:36:47.654Z,0.15
2018-02-06T02:38:02.498Z,0.15
2018-02-06T02:39:17.562Z,0.13
2018-02-06T02:40:31.893Z,0.16
2018-02-06T04:38:26.045Z,0.5
2018-02-06T04:39:40.376Z,0.49
2018-02-06T04:40:54.694Z,0.52
2018-02-06T04:42:09.545Z,0.54
2018-02-06T04:43:23.992Z,0.55
2018-02-06T04:44:38.583Z,0.59
2018-02-06T04:45:53.789Z,0.59
2018-02-06T04:47:08.713Z,0.58
2018-02-06T04:48:24.140Z,0.55
2018-02-06T04:49:38.733Z,0.53
2018-02-06T04:50:53.970Z,0.51
2018-02-06T04:52:09.028Z,0.52
2018-02-06T04:53:23.411Z,0.52
2018-02-06T04:54:38.539Z,0.5
2018-02-06T04:55:53.379Z,0.49
2018-02-06T04:57:08.816Z,0.5
2018-02-06T04:58:23.992Z,0.52
2018-02-06T04:59:38.900Z,0.5
2018-02-06T05:00:53.259Z,0.51
2018-02-06T05:02:08.137Z,0.53
2018-02-06T05:03:22.912Z,0.57
2018-02-06T05:04:37.215Z,0.6
2018-02-06T05:05:51.805Z,0.62
2018-02-06T05:07:07.004Z,0.63
2018-02-06T05:08:21.998Z,0.65
2018-02-06T05:09:36.615Z,0.62
2018-02-06T05:10:51.771Z,0.62
2018-02-06T05:12:06.989Z,0.64
2018-02-06T05:13:21.648Z,0.65
2018-02-06T05:14:36.814Z,0.68
2018-02-06T05:15:51.918Z,0.68
2018-02-06T05:17:06.518Z,0.66
2018-02-06T05:18:21.165Z,0.64
2018-02-06T05:19:36.530Z,0.63
2018-02-06T05:20:51.507Z,0.62
2018-02-06T05:22:06.128Z,0.64
2018-02-06T05:23:20.473Z,0.62
2018-02-06T05:25:00.732Z,0.65
2018-02-06T05:26:15.627Z,0.69
2018-02-06T05:27:29.981Z,0.7
2018-02-06T05:28:44.811Z,0.71
2018-02-06T05:29:59.437Z,0.69
2018-02-06T05:31:14.660Z,0.71
2018-02-06T05:32:29.278Z,0.72
2018-02-06T05:33:44.658Z,0.74
2018-02-06T05:34:59.000Z,0.76
2018-02-06T05:36:14.392Z,0.79
2018-02-06T05:37:29.447Z,0.77
2018-02-06T05:38:43.824Z,0.73
2018-02-06T05:39:58.615Z,0.67
2018-02-06T05:41:12.435Z,0.66
2018-02-06T05:42:27.328Z,0.69
2018-02-06T05:43:42.064Z,0.66
2018-02-06T05:44:56.929Z,0.68
2018-02-06T05:46:11.586Z,0.68
2018-02-06T05:47:26.216Z,0.64
2018-02-06T05:48:41.326Z,0.61
2018-02-06T05:49:56.880Z,0.58
2018-02-06T05:51:11.823Z,0.57
2018-02-06T05:52:26.193Z,0.55
2018-02-06T05:53:41.010Z,0.54
2018-02-06T05:54:56.041Z,0.58
2018-02-06T05:56:11.253Z,0.6
2018-02-06T05:57:26.067Z,0.64
2018-02-06T05:58:41.289Z,0.66
2018-02-06T05:59:56.607Z,0.62
2018-02-06T06:01:10.739Z,0.61
2018-02-06T06:02:26.183Z,0.62
2018-02-06T06:03:41.411Z,0.59
2018-02-06T06:04:56.410Z,0.56
2018-02-06T06:06:11.028Z,0.55
2018-02-06T06:07:26.183Z,0.57
2018-02-06T06:08:40.881Z,0.61
2018-02-06T06:09:56.248Z,0.65
2018-02-06T06:11:11.173Z,0.63
2018-02-06T06:12:26.628Z,0.68
2018-02-06T06:13:42.045Z,0.65
2018-02-06T06:14:58.160Z,0.62
2018-02-06T06:16:12.822Z,0.61
2018-02-06T06:17:27.802Z,0.57
2018-02-06T06:18:43.271Z,0.58
2018-02-06T06:19:58.269Z,0.59
2018-02-06T06:21:13.168Z,0.62
2018-02-06T06:22:28.327Z,0.63
2018-02-06T06:23:43.068Z,0.69
2018-02-06T06:24:57.837Z,0.73
2018-02-06T06:26:12.855Z,0.75
2018-02-06T06:27:27.501Z,0.74
2018-02-06T06:28:42.540Z,0.75
2018-02-06T06:29:57.615Z,0.76
2018-02-06T06:31:12.597Z,0.74
2018-02-06T06:32:27.786Z,0.73
2018-02-06T06:33:43.291Z,0.7
2018-02-06T06:34:58.944Z,0.67
2018-02-06T06:36:13.850Z,0.67
2018-02-06T06:37:28.483Z,0.69
2018-02-06T06:38:43.674Z,0.67
2018-02-06T06:39:59.056Z,0.68
2018-02-06T06:41:14.470Z,0.67
2018-02-06T06:42:29.789Z,0.66
2018-02-06T06:43:44.767Z,0.66
2018-02-06T06:44:59.998Z,0.62
2018-02-06T06:46:15.284Z,0.6
2018-02-06T06:47:30.454Z,0.57
2018-02-06T06:48:45.071Z,0.56
2018-02-06T06:50:00.364Z,0.58
2018-02-06T06:51:14.849Z,0.57
2018-02-06T06:52:30.744Z,0.6
2018-02-06T06:53:45.352Z,0.65
2018-02-06T06:54:59.712Z,0.72
2018-02-06T06:56:14.373Z,0.79
2018-02-06T06:57:29.356Z,0.82
2018-02-06T06:58:44.870Z,0.83
2018-02-06T06:59:59.707Z,0.83
2018-02-06T07:01:14.207Z,0.8
2018-02-06T07:02:29.675Z,0.77
2018-02-06T07:03:44.811Z,0.79
2018-02-06T07:05:00.788Z,0.82
2018-02-06T07:06:16.044Z,0.84
2018-02-06T07:07:31.532Z,0.81
2018-02-06T07:08:46.698Z,0.76
2018-02-06T07:10:01.566Z,0.71
2018-02-06T07:11:16.213Z,0.66
2018-02-06T07:12:30.876Z,0.63
2018-02-06T07:13:46.083Z,0.61
2018-02-06T07:15:00.497Z,0.6
2018-02-06T07:16:15.837Z,0.59
2018-02-06T07:17:30.839Z,0.59
2018-02-06T07:18:45.827Z,0.62
2018-02-06T07:20:01.032Z,0.65
2018-02-06T07:21:15.696Z,0.66
2018-02-06T07:22:30.845Z,0.67
2018-02-06T07:23:46.101Z,0.64
2018-02-06T07:25:00.457Z,0.61
2018-02-06T07:26:14.963Z,0.63
2018-02-06T07:27:29.826Z,0.66
2018-02-06T07:28:45.003Z,0.68
2018-02-06T07:30:00.516Z,0.72
2018-02-06T07:31:15.855Z,0.74
2018-02-06T07:32:36.535Z,0.73
2018-02-06T07:33:51.715Z,0.75
2018-02-06T07:35:06.875Z,0.77
2018-02-06T07:36:21.863Z,0.8
2018-02-06T07:37:36.616Z,0.86
2018-02-06T07:38:51.035Z,0.91
2018-02-06T07:40:06.316Z,0.99
2018-02-06T07:41:21.727Z,1.07
2018-02-06T07:42:36.923Z,1.08
2018-02-06T07:43:51.853Z,1.08
2018-02-06T07:45:05.753Z,1.05
2018-02-06T07:46:20.341Z,1.04
2018-02-06T07:47:35.351Z,1.06
2018-02-06T07:48:50.076Z,1.05
2018-02-06T07:50:05.003Z,1.06
2018-02-06T07:51:19.444Z,1.02
2018-02-06T07:52:33.898Z,1
2018-02-06T07:53:49.142Z,1.03
2018-02-06T07:55:04.751Z,1.04
2018-02-06T07:56:19.563Z,1.05
2018-02-06T07:57:34.662Z,1.08
2018-02-06T07:58:49.018Z,1.13
2018-02-06T08:00:03.992Z,1.17
2018-02-06T08:01:19.465Z,1.18
2018-02-06T08:02:34.542Z,1.25
2018-02-06T08:03:49.209Z,1.26
2018-02-06T08:05:03.718Z,1.28
2018-02-06T08:06:18.384Z,1.27
2018-02-06T08:07:34.022Z,1.29
2018-02-06T08:08:48.721Z,1.3
2018-02-06T08:10:04.052Z,1.32
2018-02-06T08:11:19.202Z,1.3
2018-02-06T08:12:33.883Z,1.29
2018-02-06T08:13:49.055Z,1.25
2018-02-06T08:15:04.022Z,1.24
2018-02-06T08:16:18.720Z,1.27
2018-02-06T08:17:33.685Z,1.28
2018-02-06T08:18:48.339Z,1.29
2018-02-06T08:20:03.334Z,1.33
2018-02-06T08:21:18.757Z,1.39
2018-02-06T08:22:33.754Z,1.42
2018-02-06T08:23:48.415Z,1.47
2018-02-06T08:25:03.066Z,1.53
2018-02-06T08:26:18.174Z,1.57
2018-02-06T08:27:32.820Z,1.62
2018-02-06T08:28:47.395Z,1.64
2018-02-06T08:30:02.797Z,1.67
2018-02-06T08:31:17.827Z,1.7
2018-02-06T08:32:32.779Z,1.72
2018-02-06T08:33:47.707Z,1.74
2018-02-06T08:35:02.377Z,1.81
2018-02-06T08:36:18.116Z,1.91
2018-02-06T08:37:32.500Z,1.95
2018-02-06T08:38:47.686Z,1.95
2018-02-06T08:40:03.156Z,2
2018-02-06T08:41:17.929Z,2.03
2018-02-06T08:42:33.411Z,2.07
2018-02-06T08:43:48.341Z,2.16
2018-02-06T08:45:03.112Z,2.21
2018-02-06T08:46:18.161Z,2.22
2018-02-06T08:47:32.521Z,2.22
2018-02-06T08:48:46.927Z,2.2
2018-02-06T08:50:01.842Z,2.19
2018-02-06T08:51:18.424Z,2.23
2018-02-06T08:52:33.348Z,2.32
2018-02-06T08:53:48.262Z,2.4
2018-02-06T08:55:02.826Z,2.43
2018-02-06T08:56:18.046Z,2.41
2018-02-06T08:57:33.554Z,2.4
2018-02-06T08:58:48.460Z,2.41
2018-02-06T09:00:03.411Z,2.47
2018-02-06T09:01:17.817Z,2.46
2018-02-06T09:02:32.963Z,2.44
2018-02-06T09:03:47.811Z,2.41
2018-02-06T09:05:02.743Z,2.28
2018-02-06T09:06:18.034Z,2.18
2018-02-06T09:07:32.962Z,2.13
2018-02-06T09:08:48.239Z,2.11
2018-02-06T09:10:03.560Z,2.06
2018-02-06T09:11:18.560Z,2.04
2018-02-06T09:12:34.108Z,2.03
2018-02-06T09:13:48.462Z,2.03
2018-02-06T09:15:03.952Z,2.03
2018-02-06T09:16:19.208Z,2.07
2018-02-06T09:17:34.956Z,2.15
2018-02-06T09:18:50.121Z,2.21
2018-02-06T09:20:05.063Z,2.29
2018-02-06T09:21:19.782Z,2.37
2018-02-06T09:22:34.887Z,2.45
2018-02-06T09:23:50.123Z,2.54
2018-02-06T09:25:04.461Z,2.58
2018-02-06T09:26:19.787Z,2.63
2018-02-06T09:27:35.163Z,2.62
2018-02-06T09:28:49.553Z,2.58
2018-02-06T09:30:04.231Z,2.61
2018-02-06T09:31:19.222Z,2.62
2018-02-06T09:32:34.534Z,2.65
2018-02-06T09:33:49.642Z,2.75
2018-02-06T09:35:05.527Z,2.85
2018-02-06T09:36:20.443Z,2.92
2018-02-06T09:37:35.083Z,2.97
2018-02-06T09:38:49.994Z,3.04
2018-02-06T09:40:04.681Z,3.11
2018-02-06T09:41:19.614Z,3.2
2018-02-06T09:42:34.256Z,3.19
2018-02-06T09:43:48.668Z,3.23
2018-02-06T09:45:03.668Z,3.22
2018-02-06T09:46:17.779Z,3.2
2018-02-06T09:47:32.740Z,3.16
2018-02-06T09:48:47.763Z,3.19
2018-02-06T09:50:02.591Z,3.21
2018-02-06T09:51:16.761Z,3.29
2018-02-06T09:52:31.784Z,3.39
2018-02-06T09:53:46.731Z,3.47
2018-02-06T09:55:01.623Z,3.51
2018-02-06T09:56:15.670Z,3.47
2018-02-06T09:57:31.008Z,3.37
2018-02-06T09:58:45.674Z,3.3
2018-02-06T10:00:00.581Z,3.28
2018-02-06T10:01:15.221Z,3.26
2018-02-06T10:02:29.600Z,3.28
2018-02-06T10:03:44.264Z,3.27
2018-02-06T10:04:59.430Z,3.24
2018-02-06T10:06:14.640Z,3.21
2018-02-06T10:07:29.617Z,3.24
2018-02-06T10:08:44.772Z,3.29
2018-02-06T10:09:59.699Z,3.37
2018-02-06T10:11:14.892Z,3.43
2018-02-06T10:12:30.716Z,3.45
2018-02-06T10:13:45.050Z,3.52
2018-02-06T10:15:00.452Z,3.49
2018-02-06T10:16:14.907Z,3.49
2018-02-06T10:17:30.213Z,3.5
2018-02-06T10:18:45.682Z,3.5
2018-02-06T10:19:59.696Z,3.55
2018-02-06T10:21:14.171Z,3.53
2018-02-06T10:22:28.793Z,3.47
2018-02-06T10:23:43.504Z,3.45
2018-02-06T10:24:58.422Z,3.43
2018-02-06T10:26:13.116Z,3.4
2018-02-06T10:27:28.011Z,3.43
2018-02-06T10:28:42.729Z,3.49
2018-02-06T10:29:57.358Z,3.5
2018-02-06T10:31:12.814Z,3.52
2018-02-06T10:32:27.575Z,3.58
2018-02-06T10:33:42.237Z,3.64
2018-02-06T10:34:56.781Z,3.69
2018-02-06T10:36:11.410Z,3.75
2018-02-06T10:37:26.898Z,3.81
2018-02-06T10:38:42.201Z,3.86
2018-02-06T10:39:56.865Z,3.84
2018-02-06T10:41:12.055Z,3.78
2018-02-06T10:42:26.463Z,3.76
2018-02-06T10:43:41.316Z,3.77
2018-02-06T10:44:55.941Z,3.74
2018-02-06T10:46:11.301Z,3.76
2018-02-06T10:47:26.580Z,3.79
2018-02-06T10:48:41.590Z,3.87
2018-02-06T10:49:57.761Z,3.9
2018-02-06T10:51:12.639Z,3.95
2018-02-06T10:52:27.799Z,3.99
2018-02-06T10:53:42.387Z,4.01
2018-02-06T10:54:57.075Z,4.07
2018-02-06T10:56:12.312Z,4.13
2018-02-06T10:57:26.951Z,4.14
2018-02-06T10:58:41.891Z,4.15
2018-02-06T10:59:55.774Z,4.15
2018-02-06T11:01:10.439Z,4.17
2018-02-06T11:02:25.947Z,4.15
2018-02-06T11:03:40.941Z,4.04
2018-02-06T11:04:55.530Z,4.01
2018-02-06T11:06:10.604Z,3.95
2018-02-06T11:07:24.650Z,3.94
2018-02-06T11:08:39.916Z,3.97
2018-02-06T11:09:55.327Z,3.97
2018-02-06T11:11:10.154Z,3.97
2018-02-06T11:12:24.894Z,3.95
2018-02-06T11:13:39.100Z,4.05
2018-02-06T11:14:54.237Z,4.15
2018-02-06T11:16:08.456Z,4.26
2018-02-06T11:17:23.151Z,4.34
2018-02-06T11:18:38.358Z,4.48
2018-02-06T11:19:52.890Z,4.62
2018-02-06T11:21:08.179Z,4.75
2018-02-06T11:22:23.697Z,4.89
2018-02-06T11:23:38.849Z,4.97
2018-02-06T11:24:53.289Z,4.96
2018-02-06T11:26:08.196Z,4.92
2018-02-06T11:27:22.340Z,4.87
2018-02-06T11:28:37.021Z,4.78
2018-02-06T11:29:51.772Z,4.71
2018-02-06T11:31:06.170Z,4.68
2018-02-06T11:32:20.922Z,4.6
2018-02-06T11:33:35.399Z,4.64
2018-02-06T11:34:50.884Z,4.63
2018-02-06T11:36:05.733Z,4.66
2018-02-06T11:37:20.486Z,4.7
2018-02-06T11:38:35.272Z,4.72
2018-02-06T11:39:49.971Z,4.8
2018-02-06T11:41:04.107Z,4.87
2018-02-06T11:42:18.837Z,4.94
2018-02-06T11:43:33.567Z,5.01
2018-02-06T11:44:48.465Z,5.02
2018-02-06T11:46:03.415Z,4.99
2018-02-06T11:47:18.419Z,5
2018-02-06T11:48:33.625Z,5.03
2018-02-06T11:49:48.659Z,5.07
2018-02-06T11:51:03.368Z,5.12
2018-02-06T11:52:18.706Z,5.14
2018-02-06T11:53:34.144Z,5.22
2018-02-06T11:54:50.236Z,5.29
2018-02-06T11:56:04.991Z,5.33
2018-02-06T11:57:19.653Z,5.38
2018-02-06T11:58:33.884Z,5.41
2018-02-06T11:59:48.568Z,5.4
2018-02-06T12:01:03.599Z,5.29
2018-02-06T12:02:18.258Z,5.22
2018-02-06T12:03:33.018Z,5.14
2018-02-06T12:04:47.924Z,5.07
2018-02-06T12:06:03.066Z,5.05
2018-02-06T12:07:18.343Z,5.01
2018-02-06T12:08:33.117Z,5.01
2018-02-06T12:09:48.017Z,5.01
2018-02-06T12:11:03.506Z,5.09
2018-02-06T12:12:19.177Z,5.15
2018-02-06T12:13:34.075Z,5.23
2018-02-06T12:14:48.414Z,5.3
2018-02-06T12:16:03.795Z,5.35
2018-02-06T12:17:18.460Z,5.41
2018-02-06T12:18:33.933Z,5.44
2018-02-06T12:19:48.909Z,5.41
2018-02-06T12:21:04.262Z,5.31
2018-02-06T12:22:18.958Z,5.26
2018-02-06T12:23:34.569Z,5.16
2018-02-06T12:24:49.558Z,5.14
2018-02-06T12:26:05.135Z,5.14
2018-02-06T12:27:20.551Z,5.08
2018-02-06T12:28:35.905Z,5.03
2018-02-06T12:29:51.421Z,4.97
2018-02-06T12:31:06.647Z,4.91
2018-02-06T12:32:21.747Z,4.9
2018-02-06T12:33:36.450Z,4.88
2018-02-06T12:34:51.118Z,4.86
2018-02-06T12:36:06.797Z,4.84
2018-02-06T12:37:21.511Z,4.79
2018-02-06T12:38:36.739Z,4.76
2018-02-06T12:39:52.063Z,4.81
2018-02-06T12:41:06.933Z,4.81
2018-02-06T12:42:21.747Z,4.77
2018-02-06T12:43:36.654Z,4.7
2018-02-06T12:44:51.318Z,4.65
2018-02-06T12:46:06.421Z,4.6
2018-02-06T12:47:21.668Z,4.57
2018-02-06T12:48:36.968Z,4.55
2018-02-06T12:49:52.167Z,4.51
2018-02-06T12:51:07.288Z,4.45
2018-02-06T12:52:22.218Z,4.43
2018-02-06T12:53:36.904Z,4.38
2018-02-06T12:54:52.096Z,4.34
2018-02-06T12:56:06.596Z,4.31
2018-02-06T12:57:21.021Z,4.3
2018-02-06T12:58:36.354Z,4.33
2018-02-06T12:59:51.875Z,4.31
2018-02-06T13:01:07.332Z,4.3
2018-02-06T13:02:22.698Z,4.33
2018-02-06T13:03:37.372Z,4.32
2018-02-06T13:04:52.604Z,4.28
2018-02-06T13:06:07.753Z,4.19
2018-02-06T13:07:23.084Z,4.12
2018-02-06T13:08:37.880Z,4.08
2018-02-06T13:09:53.006Z,4.03
2018-02-06T13:11:07.813Z,4
2018-02-06T13:12:22.584Z,3.99
2018-02-06T13:13:37.612Z,3.99
2018-02-06T13:14:52.605Z,3.99
2018-02-06T13:16:08.039Z,4.04
2018-02-06T13:17:22.527Z,4.06
2018-02-06T13:18:37.174Z,4.06
2018-02-06T13:19:53.035Z,4.05
2018-02-06T13:21:07.595Z,4.06
2018-02-06T13:22:22.902Z,4.09
2018-02-06T13:23:38.735Z,4.16
2018-02-06T13:24:53.384Z,4.18
2018-02-06T13:26:08.458Z,4.19
2018-02-06T13:27:23.074Z,4.3
2018-02-06T13:28:37.453Z,4.32
2018-02-06T13:29:52.462Z,4.37
2018-02-06T13:31:07.851Z,4.44
2018-02-06T13:32:23.300Z,4.47
2018-02-06T13:33:38.186Z,4.42
2018-02-06T13:34:52.823Z,4.45
2018-02-06T13:36:08.286Z,4.48
2018-02-06T13:37:23.202Z,4.45
2018-02-06T13:38:38.147Z,4.51
2018-02-06T13:39:53.633Z,4.55
2018-02-06T13:41:08.387Z,4.6
2018-02-06T13:42:23.637Z,4.65
2018-02-06T13:43:38.866Z,4.66
2018-02-06T13:44:54.618Z,4.7
2018-02-06T13:46:10.241Z,4.76
2018-02-06T13:47:24.933Z,4.78
2018-02-06T13:48:39.612Z,4.79
2018-02-06T13:49:54.566Z,4.75
2018-02-06T13:51:09.695Z,4.67
2018-02-06T13:52:25.211Z,4.6
2018-02-06T13:53:40.478Z,4.53
2018-02-06T13:54:55.565Z,4.47
2018-02-06T13:56:10.353Z,4.42
2018-02-06T13:57:25.596Z,4.37
2018-02-06T13:58:40.572Z,4.36
2018-02-06T13:59:55.898Z,4.31
2018-02-06T14:01:10.068Z,4.29
2018-02-06T14:02:25.079Z,4.26
2018-02-06T14:03:40.384Z,4.24
2018-02-06T14:04:54.994Z,4.18
2018-02-06T14:06:09.692Z,4.12
2018-02-06T14:07:24.615Z,4.09
2018-02-06T14:08:39.699Z,4.07
2018-02-06T14:09:54.093Z,4.05
2018-02-06T14:11:08.971Z,4
2018-02-06T14:12:23.456Z,3.95
2018-02-06T14:13:37.577Z,3.94
2018-02-06T14:14:52.455Z,3.89
2018-02-06T14:16:07.259Z,3.89
2018-02-06T14:17:22.727Z,3.92
2018-02-06T14:18:37.441Z,3.94
2018-02-06T14:19:52.698Z,3.94
2018-02-06T14:21:07.375Z,4.02
2018-02-06T14:22:22.273Z,4.03
2018-02-06T14:23:37.588Z,4.04
2018-02-06T14:24:51.996Z,4.04
2018-02-06T14:26:07.052Z,4.01
2018-02-06T14:27:22.128Z,3.96
2018-02-06T14:28:37.150Z,3.93
2018-02-06T14:29:51.618Z,3.91
2018-02-06T14:31:06.882Z,3.85
2018-02-06T14:32:21.266Z,3.79
2018-02-06T14:33:35.430Z,3.81
2018-02-06T14:34:51.759Z,3.87
2018-02-06T14:36:06.799Z,3.91
2018-02-06T14:37:34.581Z,3.96
2018-02-06T14:38:49.222Z,4.04
2018-02-06T14:40:03.678Z,4.07
2018-02-06T14:41:18.782Z,4.11
2018-02-06T14:42:34.290Z,4.08
2018-02-06T14:43:49.000Z,4.07
2018-02-06T14:45:04.351Z,4.03
2018-02-06T14:46:19.270Z,3.97
2018-02-06T14:47:34.321Z,3.95
2018-02-06T14:48:48.934Z,3.96
2018-02-06T14:50:03.323Z,3.97
2018-02-06T14:51:18.387Z,3.95
2018-02-06T14:52:33.569Z,3.96
2018-02-06T14:53:48.302Z,3.96
2018-02-06T14:55:03.165Z,3.98
2018-02-06T14:56:17.643Z,4.02
2018-02-06T14:57:33.042Z,4.07
2018-02-06T14:58:48.616Z,4.12
2018-02-06T15:00:03.983Z,4.12
2018-02-06T15:01:18.960Z,4.11
2018-02-06T15:02:34.199Z,4.13
2018-02-06T15:03:48.890Z,4.11
2018-02-06T15:05:03.278Z,4.11
2018-02-06T15:06:18.157Z,4.1
2018-02-06T15:07:32.731Z,4.06
2018-02-06T15:08:47.294Z,3.99
2018-02-06T15:10:03.290Z,3.9
2018-02-06T15:11:17.945Z,3.83
2018-02-06T15:12:32.564Z,3.78
2018-02-06T15:13:47.522Z,3.71
2018-02-06T15:15:02.415Z,3.65
2018-02-06T15:16:17.411Z,3.65
2018-02-06T15:17:32.655Z,3.68
2018-02-06T15:18:47.949Z,3.7
2018-02-06T15:20:02.315Z,3.7
2018-02-06T15:21:16.849Z,3.71
2018-02-06T15:22:32.663Z,3.74
2018-02-06T15:23:47.383Z,3.79
2018-02-06T15:25:01.291Z,3.8
2018-02-06T15:26:17.015Z,3.81
2018-02-06T15:27:32.385Z,3.84
2018-02-06T15:28:47.486Z,3.91
2018-02-06T15:30:02.047Z,3.92
2018-02-06T15:31:16.595Z,3.97
2018-02-06T15:32:31.423Z,4.03
2018-02-06T15:33:46.153Z,4.11
2018-02-06T15:35:02.731Z,4.08
2018-02-06T15:36:17.505Z,4.03
2018-02-06T15:37:32.589Z,4.03
2018-02-06T15:38:47.551Z,4.05
2018-02-06T15:40:01.726Z,4.1
2018-02-06T15:41:16.349Z,4.1
2018-02-06T15:42:32.115Z,4.15
2018-02-06T15:43:47.162Z,4.15
2018-02-06T15:45:02.186Z,4.16
2018-02-06T15:46:17.155Z,4.14
2018-02-06T15:47:31.430Z,4.13
2018-02-06T15:48:45.911Z,4.08
2018-02-06T15:50:01.181Z,4.08
2018-02-06T15:51:15.804Z,4.01
2018-02-06T15:52:31.368Z,3.97
2018-02-06T15:53:47.033Z,3.87
2018-02-06T15:55:02.017Z,3.87
2018-02-06T15:56:16.500Z,3.85
2018-02-06T15:57:31.986Z,3.89
2018-02-06T15:58:46.895Z,3.92
2018-02-06T16:00:02.171Z,3.99
2018-02-06T16:01:17.140Z,4.01
2018-02-06T16:02:31.771Z,4.01
2018-02-06T16:03:46.466Z,4.01
2018-02-06T16:05:00.914Z,4.02
2018-02-06T16:06:16.222Z,4.04
2018-02-06T16:07:30.997Z,4.02
2018-02-06T16:08:45.499Z,4.03
2018-02-06T16:10:00.431Z,4.05
2018-02-06T16:11:15.470Z,4.04
2018-02-06T16:12:30.452Z,4.07
2018-02-06T16:13:45.364Z,4.08
2018-02-06T16:15:00.645Z,4.07
2018-02-06T16:16:15.427Z,4.05
2018-02-06T16:17:30.068Z,4.08
2018-02-06T16:18:44.882Z,4.08
2018-02-06T16:19:59.852Z,4.07
2018-02-06T16:21:15.645Z,4.08
2018-02-06T16:28:42.743Z,4.07
2018-02-06T16:29:57.725Z,4.07
2018-02-06T16:31:12.463Z,4.06
2018-02-06T16:32:27.202Z,4.07
2018-02-06T16:33:42.445Z,4.06
2018-02-06T16:34:57.397Z,4.06
2018-02-06T16:36:12.091Z,4.04
2018-02-06T16:37:27.057Z,4.03
2018-02-06T16:38:41.476Z,3.98
2018-02-06T16:39:56.605Z,3.91
2018-02-06T16:41:11.989Z,3.83
2018-02-06T16:42:27.059Z,3.75
2018-02-06T16:43:41.545Z,3.7
2018-02-06T16:44:56.478Z,3.67
2018-02-06T16:46:11.432Z,3.64
2018-02-06T16:47:26.457Z,3.59
2018-02-06T16:48:40.639Z,3.53
2018-02-06T16:49:55.884Z,3.51
2018-02-06T16:51:10.660Z,3.5
2018-02-06T16:52:25.386Z,3.43
2018-02-06T16:53:40.679Z,3.4
2018-02-06T16:54:56.172Z,3.38
2018-02-06T16:56:11.525Z,3.36
2018-02-06T16:57:26.086Z,3.34
2018-02-06T16:58:41.426Z,3.32
2018-02-06T16:59:56.575Z,3.36
2018-02-06T17:01:10.791Z,3.35
2018-02-06T17:02:25.813Z,3.38
2018-02-06T17:03:41.157Z,3.36
2018-02-06T17:04:56.770Z,3.37
2018-02-06T17:06:11.575Z,3.36
2018-02-06T17:07:26.909Z,3.4
2018-02-06T17:08:41.367Z,3.45
2018-02-06T17:09:56.628Z,3.46
2018-02-06T17:11:11.906Z,3.49
2018-02-06T17:12:27.447Z,3.54
2018-02-06T17:13:43.576Z,3.59
2018-02-06T17:14:58.189Z,3.61
2018-02-06T17:16:13.092Z,3.62
2018-02-06T17:17:28.124Z,3.64
2018-02-06T17:18:42.556Z,3.65
2018-02-06T17:19:58.718Z,3.63
2018-02-06T17:21:13.280Z,3.61
2018-02-06T17:22:28.637Z,3.6
2018-02-06T17:23:43.442Z,3.56
2018-02-06T17:24:59.075Z,3.53
2018-02-06T17:26:14.678Z,3.5
2018-02-06T17:27:30.380Z,3.48
2018-02-06T17:28:46.215Z,3.44
2018-02-06T17:30:01.981Z,3.37
2018-02-06T17:31:17.144Z,3.33
2018-02-06T17:34:08.646Z,3.3
2018-02-06T17:35:23.841Z,3.34
2018-02-06T17:36:39.237Z,3.36
2018-02-06T17:37:54.269Z,3.41
2018-02-06T17:39:08.897Z,3.4
2018-02-06T17:40:24.501Z,3.37
2018-02-06T17:41:39.815Z,3.37
2018-02-06T17:42:54.579Z,3.4
2018-02-06T17:44:08.935Z,3.45
2018-02-06T17:45:24.392Z,3.49
2018-02-06T17:46:39.611Z,3.52
2018-02-06T17:47:54.441Z,3.53
2018-02-06T17:49:09.489Z,3.52
2018-02-06T17:50:24.837Z,3.5
2018-02-06T17:51:39.523Z,3.47
2018-02-06T17:52:54.635Z,3.45
2018-02-06T17:54:09.144Z,3.43
2018-02-06T17:55:24.388Z,3.39
2018-02-06T17:56:40.078Z,3.4
2018-02-06T17:57:55.298Z,3.4
2018-02-06T17:59:10.626Z,3.4
2018-02-06T18:00:24.787Z,3.41
2018-02-06T18:01:40.161Z,3.46
2018-02-06T18:02:54.441Z,3.51
2018-02-06T18:04:09.643Z,3.55
2018-02-06T18:05:24.082Z,3.6
2018-02-06T18:06:38.987Z,3.6
2018-02-06T18:07:53.983Z,3.56
2018-02-06T18:09:08.513Z,3.53
2018-02-06T18:10:23.424Z,3.52
2018-02-06T18:11:38.393Z,3.51
2018-02-06T18:12:52.799Z,3.53
2018-02-06T18:14:07.534Z,3.54
2018-02-06T18:15:22.973Z,3.49
2018-02-06T18:16:38.065Z,3.48
2018-02-06T18:17:53.087Z,3.44
2018-02-06T18:19:07.106Z,3.42
2018-02-06T18:20:22.598Z,3.39
2018-02-06T18:21:37.800Z,3.41
2018-02-06T18:22:52.764Z,3.43
2018-02-06T18:24:07.312Z,3.44
2018-02-06T18:25:23.154Z,3.42
2018-02-06T18:26:37.752Z,3.4
2018-02-06T18:27:52.921Z,3.41
2018-02-06T18:29:07.420Z,3.38
2018-02-06T18:30:22.617Z,3.38
2018-02-06T18:31:37.863Z,3.41
2018-02-06T18:32:52.306Z,3.4
2018-02-06T18:34:07.334Z,3.46
2018-02-06T18:35:22.039Z,3.49
2018-02-06T18:36:36.877Z,3.54
2018-02-06T18:37:51.599Z,3.57
2018-02-06T18:39:06.017Z,3.58
2018-02-06T18:40:21.470Z,3.57
2018-02-06T18:41:36.586Z,3.55
2018-02-06T18:42:51.830Z,3.51
2018-02-06T18:44:06.888Z,3.45
2018-02-06T18:45:21.381Z,3.4
2018-02-06T18:46:37.046Z,3.36